Date,TemperatureHighF,TemperatureAvgF,TemperatureLowF,DewpointHighF,DewpointAvgF,DewpointLowF,HumidityHigh,HumidityAvg,HumidityLow,PressureMaxIn,PressureMinIn,WindSpeedMaxMPH,WindSpeedAvgMPH,GustSpeedMaxMPH,PrecipitationSumIn
2013-1-1,32.4,22.4,5.8,27.2,10.7,-2.2,86,61,44,29.98,29.74,9,4,15,0.00
2013-1-2,11.6,7.9,4.3,4.9,1.2,-2.4,80,74,68,29.99,29.95,4,1,7,0.00
2013-1-5,33.4,28.2,20.3,24.7,17.0,13.8,80,64,46,30.25,29.95,12,3,18,0.01
2013-1-6,35.8,29.9,20.3,31.0,24.6,14.5,95,81,68,30.20,29.93,5,2,13,0.00
2013-1-7,33.4,23.6,16.4,30.2,17.5,13.2,89,77,61,30.39,29.98,10,3,10,0.01
2013-1-8,25.4,20.6,16.5,20.1,16.5,13.2,89,84,78,30.32,30.28,3,0,5,0.00
2013-1-13,50.5,43.8,38.8,46.1,42.9,38.8,100,97,81,30.09,29.93,4,0,5,0.00
2013-1-14,49.8,41.8,31.8,46.4,35.6,22.2,100,80,50,30.31,29.82,8,1,15,0.01
2013-1-15,35.0,30.6,26.9,26.3,22.0,19.5,85,71,56,30.36,30.24,2,0,6,0.00
2013-1-16,31.6,28.7,26.4,29.2,25.9,20.6,96,90,71,30.24,29.83,3,0,5,0.00
2013-1-17,35.2,26.5,12.3,29.4,17.8,1.7,93,71,45,30.17,29.84,8,4,15,0.01
2013-1-18,21.8,12.9,1.3,6.2,-0.5,-8.0,77,56,34,30.42,30.14,7,2,9,0.00
2013-1-19,42.2,34.0,21.6,26.2,17.8,6.1,66,51,43,30.29,29.79,8,4,11,0.02
2013-1-20,44.3,34.8,17.8,31.4,18.0,0.8,75,50,41,30.00,29.48,11,6,22,0.01
2013-1-21,22.7,18.1,13.3,16.5,7.1,-1.7,91,63,45,30.08,29.82,5,1,22,0.00
2013-1-22,17.2,11.0,6.3,11.0,1.1,-10.8,88,66,38,30.11,29.80,8,2,22,0.00
2013-1-23,8.8,1.8,-4.1,-8.5,-14.7,-18.8,62,46,27,30.21,30.11,8,2,12,0.00
2013-1-24,13.6,2.1,-9.1,-7.7,-13.6,-16.8,74,50,26,30.40,30.19,12,3,17,0.00
2013-1-25,13.3,6.9,-1.4,5.3,-7.4,-12.3,82,52,35,30.43,30.13,3,1,10,0.00
2013-1-26,14.1,8.2,3.0,4.9,0.0,-3.4,84,70,47,30.35,30.10,6,2,10,0.00
2013-1-27,8.1,7.2,6.0,0.9,-0.2,-1.7,73,71,69,30.37,30.35,0,0,0,0.00
2013-1-28,23.9,21.0,18.3,22.2,18.2,13.2,93,89,79,30.34,30.03,2,0,5,0.00
2013-2-3,26.3,21.0,10.2,13.5,11.0,7.4,89,66,48,29.99,29.78,4,0,7,0.01
2013-2-4,25.0,19.1,15.2,12.9,5.9,-1.8,80,58,34,29.95,29.77,10,2,14,0.00
2013-2-5,26.4,17.2,6.3,12.9,6.8,2.7,87,65,40,30.05,29.92,2,0,6,0.00
2013-2-6,34.6,25.2,15.6,23.7,11.2,-6.4,89,59,24,30.37,29.91,7,2,14,0.00
2013-2-7,19.4,13.8,6.9,3.6,-1.3,-4.8,62,51,37,30.58,30.36,7,3,10,0.00
2013-2-8,28.5,23.4,13.8,22.2,15.2,2.1,90,72,39,30.44,29.85,12,5,22,0.00
2013-2-9,21.1,11.7,3.5,18.8,3.6,-5.4,92,71,47,30.39,29.86,14,7,21,0.00
2013-2-10,26.9,13.4,-0.6,6.7,-0.0,-5.9,82,57,28,30.55,30.32,2,0,19,0.07
2013-2-11,46.5,32.6,14.8,39.2,26.9,4.5,96,80,44,30.32,29.66,7,1,8,0.04
2013-2-12,37.2,34.4,31.2,31.2,27.1,23.6,89,75,67,29.89,29.67,6,3,10,0.00
2013-2-13,31.0,30.1,29.7,25.0,24.8,24.0,82,80,75,29.88,29.87,3,1,3,0.00
2013-2-18,22.4,19.3,16.7,6.4,4.8,2.2,58,53,41,30.19,30.16,2,0,5,0.00
2013-2-19,46.0,29.1,15.6,34.3,19.3,3.5,98,69,35,30.18,29.63,11,2,16,0.23
2013-2-20,32.9,25.8,22.1,32.4,19.1,14.1,98,76,63,29.84,29.62,6,2,10,0.01
2013-2-21,24.4,19.3,14.1,15.5,9.4,2.6,82,65,49,30.41,29.84,8,3,14,0.00
2013-2-22,34.4,27.0,19.4,25.9,20.3,14.5,89,77,59,30.45,30.26,6,1,7,0.01
2013-2-23,35.5,33.7,30.6,31.7,28.0,22.6,98,80,64,30.26,29.90,9,3,12,0.03
2013-2-24,35.3,32.4,30.1,34.8,32.1,29.9,100,99,97,29.97,29.78,6,1,9,0.16
2013-2-25,36.5,31.3,27.5,31.7,29.1,27.0,99,92,74,30.26,29.97,2,0,5,0.12
2013-2-26,42.8,34.2,26.7,34.0,27.6,22.1,98,79,52,30.33,30.08,10,2,16,0.00
2013-2-27,42.1,36.8,32.1,34.5,30.2,23.2,96,77,61,30.07,29.56,9,4,21,0.38
2013-2-28,43.2,36.7,32.2,34.9,31.3,27.5,92,81,63,29.63,29.57,5,0,6,0.00
2013-3-1,35.9,32.4,30.0,32.2,28.5,25.8,98,86,69,29.78,29.61,9,3,12,0.01
2013-3-2,30.4,28.7,24.2,27.3,25.8,22.2,94,89,82,29.78,29.74,7,3,9,0.03
2013-3-3,29.0,25.1,22.2,24.7,21.3,17.7,92,85,73,29.76,29.70,4,1,6,0.07
2013-3-4,31.9,26.5,22.9,22.2,18.7,16.2,88,73,56,29.92,29.74,9,2,10,0.03
2013-3-5,35.9,28.4,24.5,26.1,22.8,19.8,91,80,65,30.11,29.92,8,2,11,0.02
2013-3-6,37.2,32.5,24.5,30.1,24.8,20.1,93,74,57,30.17,30.08,7,2,15,0.01
2013-3-7,35.6,31.5,27.0,27.6,23.2,18.4,96,73,55,30.18,30.13,10,4,14,0.01
2013-3-8,36.6,29.6,25.4,27.7,25.1,21.2,96,84,62,30.32,30.12,12,7,19,0.15
2013-3-9,47.6,33.4,21.8,26.2,21.7,18.3,88,65,36,30.37,30.30,6,1,19,0.04
2013-3-10,55.6,40.5,25.4,26.6,22.1,18.5,82,52,26,30.37,30.18,3,0,19,0.00
2013-3-11,52.8,44.9,36.9,31.5,27.8,22.3,72,52,32,30.23,30.00,5,1,19,0.00
2013-3-12,53.5,48.5,36.5,50.0,44.4,30.4,98,86,54,30.02,29.66,9,5,19,1.09
2013-3-13,46.0,37.3,32.7,35.2,26.6,18.1,97,68,36,29.84,29.76,5,1,19,0.00
2013-3-14,32.4,24.9,20.6,24.4,13.1,4.4,88,61,47,29.92,29.79,11,4,20,0.01
2013-3-15,20.6,5.2,13.8,8.9,-67.4,-99.9,75,19,50,29.94,29.92,12,-695,20,0.00
2013-3-22,34.3,30.2,26.9,27.2,22.4,17.7,90,73,57,29.81,29.69,5,1,11,0.01
2013-3-23,38.8,31.4,25.4,21.3,19.3,15.8,81,62,42,29.86,29.75,12,4,19,0.02
2013-3-24,38.8,33.8,29.0,24.1,21.6,19.8,79,61,51,29.89,29.80,7,2,11,0.00
2013-3-25,41.9,33.5,24.8,28.9,24.0,20.4,84,69,47,29.81,29.56,6,1,11,0.00
2013-3-26,43.6,35.2,29.5,30.6,24.0,17.1,93,66,36,29.85,29.63,9,3,14,0.01
2013-3-27,47.7,37.5,26.7,32.0,24.9,20.1,78,61,39,29.94,29.83,7,1,11,0.01
2013-3-28,46.2,38.1,32.5,36.3,32.2,28.2,97,80,59,30.09,29.94,5,1,11,0.01
2013-3-29,47.7,40.2,32.8,34.3,30.2,26.4,87,69,50,30.12,30.04,5,1,11,0.00
2013-3-30,53.6,41.1,29.8,32.1,20.8,7.4,90,51,19,30.13,30.04,8,1,11,0.01
2013-3-31,58.1,42.2,27.5,38.6,24.5,15.8,95,54,24,30.12,29.74,10,3,18,0.15
2013-4-1,48.6,38.3,28.2,42.0,29.9,9.8,99,75,31,29.84,29.55,10,2,17,0.03
2013-4-2,33.8,28.1,22.9,23.1,12.3,6.1,78,52,32,29.98,29.84,9,3,15,0.03
2013-4-3,41.3,31.3,23.5,15.8,9.5,2.3,66,42,20,30.25,29.97,10,4,21,0.00
2013-4-4,50.5,37.5,23.6,19.9,16.5,11.3,75,46,26,30.33,29.97,6,2,21,0.00
2013-4-5,53.1,42.5,32.2,25.0,19.4,14.4,66,41,26,29.98,29.74,11,4,21,0.00
2013-4-6,43.3,32.9,23.9,15.8,6.1,-2.2,63,34,15,30.31,29.98,11,4,21,0.00
2013-4-7,61.2,46.8,29.3,39.1,20.9,6.5,62,37,20,30.27,29.86,12,6,25,0.00
2013-4-8,58.3,48.9,41.9,39.0,33.1,28.1,71,56,33,30.13,29.94,6,2,20,0.00
2013-4-9,62.9,54.5,46.0,48.6,42.9,35.5,93,66,41,30.03,29.80,8,2,20,0.04
2013-4-10,53.9,46.8,42.1,47.0,44.7,41.8,100,93,72,30.04,29.88,8,2,13,0.60
2013-4-11,41.9,35.4,31.0,41.6,27.2,17.9,99,73,50,30.17,29.90,10,4,16,0.02
2013-4-12,36.3,34.5,31.8,31.4,28.5,21.7,87,79,65,30.17,29.80,13,6,27,0.07
2013-4-13,51.3,35.7,33.8,39.5,18.1,-99.9,98,71,58,29.94,29.81,8,-124,27,0.19
2013-4-14,-200.0,0.0,200.0,-99.9,-99.9,-99.9,0,0,100,30.04,29.93,0,-999,5,0.00
2013-4-18,61.3,57.2,54.5,47.4,39.3,33.4,71,52,35,30.10,30.00,9,5,18,0.00
2013-4-19,74.2,64.6,45.8,61.8,54.5,44.0,95,71,53,30.00,29.48,13,8,25,0.84
2013-4-20,52.2,42.8,34.1,44.7,30.5,16.0,96,65,35,30.30,29.70,9,4,21,0.19
2013-4-21,46.8,36.6,27.0,20.4,15.4,10.5,65,44,23,30.69,30.30,10,3,20,0.00
2013-4-22,56.5,42.3,26.4,27.5,18.1,11.6,76,41,19,30.72,30.53,9,4,16,0.00
2013-4-23,49.4,41.7,33.4,37.4,30.8,22.6,83,65,56,30.53,30.15,10,6,20,0.00
2013-4-24,74.4,55.7,35.0,49.7,39.8,33.6,99,62,25,30.16,29.68,8,2,19,0.00
2013-4-25,63.4,47.9,38.9,51.3,30.0,19.3,86,53,25,30.28,29.67,8,2,16,0.02
2013-4-26,57.2,45.3,31.8,37.0,28.5,22.5,79,54,27,30.45,30.27,6,1,9,0.00
2013-4-27,62.1,47.9,31.9,37.2,27.4,13.6,91,52,15,30.45,30.30,4,1,9,0.00
2013-4-28,72.5,56.2,37.2,38.8,31.9,27.5,71,43,21,30.32,30.11,4,1,10,0.00
2013-4-29,65.5,57.4,52.0,43.8,37.5,30.8,57,48,38,30.22,30.15,6,2,18,0.00
2013-4-30,74.2,60.6,50.4,45.7,39.2,32.3,63,46,32,30.30,30.22,4,0,10,0.00
2013-5-1,78.3,62.4,43.3,39.5,31.2,16.7,69,36,10,30.43,30.28,5,1,9,0.00
2013-5-2,80.5,64.1,45.1,46.0,37.5,32.3,76,41,20,30.45,30.27,11,2,19,0.00
2013-5-3,71.6,59.4,47.6,41.8,31.8,21.4,63,38,16,30.48,30.32,7,3,19,0.00
2013-5-4,76.1,61.2,43.6,45.9,35.1,12.9,89,46,11,30.35,30.17,7,2,16,0.00
2013-5-5,76.5,60.5,41.6,36.8,29.4,20.7,60,34,13,30.28,30.12,5,1,14,0.00
2013-5-6,76.8,60.8,42.1,45.0,36.3,26.6,83,45,16,30.24,30.07,3,0,13,0.00
2013-5-7,81.8,65.3,47.1,53.1,46.3,39.2,99,56,25,30.16,30.01,2,0,7,0.00
2013-5-8,74.4,63.5,52.3,58.9,54.1,47.0,96,74,45,30.14,30.00,8,2,15,0.04
2013-5-9,72.7,59.8,49.6,58.7,53.8,49.4,100,83,46,30.00,29.86,3,0,11,0.03
2013-5-10,76.8,64.1,51.4,57.5,52.6,47.0,100,70,37,29.97,29.81,4,0,6,0.00
2013-5-11,68.9,62.3,55.7,63.2,58.0,50.8,97,87,53,29.81,29.63,7,2,12,0.16
2013-5-12,59.6,52.3,41.9,53.1,40.1,21.6,96,67,28,29.83,29.63,6,1,13,0.01
2013-5-13,47.0,42.2,37.8,33.0,29.8,27.6,78,62,49,30.08,29.83,6,2,13,0.00
2013-5-14,56.0,43.8,31.2,33.9,28.9,22.3,88,59,28,30.12,30.01,5,1,10,0.00
2013-5-15,62.0,49.4,31.6,50.4,38.4,26.9,88,68,29,30.06,29.62,8,2,14,0.02
2013-5-16,76.3,61.8,48.5,49.9,39.6,25.0,79,50,17,29.86,29.66,8,2,18,0.00
2013-5-17,66.6,53.6,41.8,42.4,38.5,33.0,90,60,30,30.22,29.86,9,2,16,0.00
2013-5-18,71.8,57.2,39.3,46.1,38.6,32.4,92,55,24,30.31,30.21,4,0,14,0.00
2013-5-19,64.0,54.9,45.2,55.6,51.0,43.9,100,88,64,30.29,30.14,5,1,13,0.18
2013-5-20,73.2,62.8,55.0,64.4,59.0,54.5,99,88,71,30.14,29.95,3,1,11,0.00
2013-5-21,83.4,67.9,59.5,68.4,62.1,53.3,100,84,50,29.97,29.79,10,2,13,0.57
2013-5-22,80.1,68.0,59.3,69.5,64.3,53.4,100,89,68,29.87,29.75,8,1,19,0.41
2013-5-23,77.2,70.1,63.5,67.9,64.0,59.5,98,82,64,29.80,29.72,6,2,13,0.22
2013-5-24,42.8,42.3,42.1,41.7,41.4,41.1,98,97,96,29.99,29.95,8,6,20,0.68
2013-5-25,42.8,41.9,40.2,42.2,41.0,38.6,99,97,94,29.98,29.90,13,7,23,1.08
2013-5-26,48.2,44.1,37.5,44.5,41.7,37.2,99,92,78,30.13,29.92,8,3,23,0.31
2013-5-27,69.9,52.7,36.0,46.6,38.1,28.6,100,66,22,30.20,30.10,7,1,13,0.00
2013-5-28,72.8,57.1,39.6,51.6,44.7,38.3,97,67,32,30.23,30.11,1,0,11,0.00
2013-5-29,71.1,60.5,54.8,66.7,59.2,51.2,100,96,81,30.11,29.93,1,0,5,0.25
2013-5-30,85.3,76.1,61.8,70.6,66.0,61.5,99,72,54,30.09,30.00,2,0,9,0.01
2013-5-31,88.4,76.5,62.9,70.5,65.1,61.6,99,71,41,30.09,29.91,3,1,10,0.00
2013-6-1,87.6,78.4,68.3,69.7,65.3,61.7,83,65,47,29.94,29.80,4,1,14,0.00
2013-6-2,85.5,74.2,63.5,71.3,66.9,62.9,99,79,57,29.82,29.66,6,2,15,1.01
2013-6-3,68.3,62.6,50.8,63.1,55.5,37.8,99,79,57,29.90,29.79,7,2,15,0.00
2013-6-4,68.6,56.0,41.5,47.8,43.1,36.7,95,64,40,30.12,29.90,7,2,14,0.00
2013-6-5,69.9,58.2,44.3,50.3,45.8,33.5,97,67,27,30.21,30.10,3,0,10,0.00
2013-6-6,71.3,59.8,48.8,55.8,49.8,44.9,98,72,43,30.16,30.05,4,1,14,0.07
2013-6-7,54.7,53.5,51.9,53.9,51.0,48.1,99,91,80,30.05,29.83,5,2,15,0.41
2013-6-8,66.6,58.0,52.0,62.0,56.7,51.4,100,96,79,30.03,29.74,5,1,9,0.43
2013-6-9,76.0,64.6,54.8,61.2,56.6,51.1,100,78,42,30.17,30.03,3,1,10,0.01
2013-6-10,69.6,60.7,51.6,62.2,56.3,51.3,100,86,55,30.18,30.01,3,1,12,0.03
2013-6-11,61.2,59.8,58.9,60.9,59.6,57.9,100,99,96,29.60,29.56,2,0,9,0.73
2013-6-12,66.8,58.2,53.5,58.7,53.9,50.6,100,87,58,29.85,29.59,9,3,16,0.23
2013-6-13,60.4,54.7,47.6,58.7,53.6,47.3,100,96,88,29.84,29.69,2,0,13,0.39
2013-6-14,74.0,61.2,51.1,60.1,53.0,46.2,100,78,38,29.86,29.70,9,2,16,0.00
2013-6-15,75.3,62.3,48.2,53.2,48.7,42.2,100,66,31,29.98,29.86,2,0,16,0.00
2013-6-16,72.1,61.0,51.4,62.1,54.4,44.0,99,80,57,29.94,29.70,4,1,13,0.04
2013-6-17,76.5,63.9,58.0,65.8,60.5,57.6,99,90,62,29.91,29.78,4,0,13,0.05
2013-6-18,62.0,56.2,51.3,58.9,54.8,51.0,100,95,75,30.01,29.90,6,1,11,0.05
2013-6-19,68.1,56.2,44.2,51.1,43.5,33.5,100,68,28,30.19,29.97,6,2,13,0.01
2013-6-20,74.6,60.5,42.9,53.4,46.6,39.9,93,64,31,30.27,30.18,2,0,9,0.00
2013-6-21,81.2,67.5,54.8,59.2,54.3,49.4,97,66,36,30.26,30.19,1,0,7,0.00
2013-6-22,81.1,69.3,58.0,68.5,61.4,52.4,99,77,55,30.20,30.07,3,1,9,0.00
2013-6-23,87.0,79.6,69.1,73.9,69.7,65.1,88,73,59,30.09,29.94,4,1,14,0.00
2013-6-24,86.7,74.8,65.6,75.4,69.4,65.3,100,84,64,30.00,29.90,7,1,16,0.42
2013-6-25,84.9,72.2,63.1,73.7,66.7,62.3,100,84,62,29.97,29.75,5,1,16,0.00
2013-6-26,75.3,70.3,65.5,70.6,68.3,65.2,99,94,82,29.81,29.77,2,0,6,0.37
2013-6-27,84.9,73.4,64.7,72.3,67.6,64.5,100,84,57,29.80,29.64,2,0,7,0.00
2013-6-28,78.8,70.6,63.4,69.5,65.0,59.9,97,83,64,29.64,29.40,8,3,27,0.42
2013-6-29,80.3,71.0,64.0,68.9,65.8,63.6,100,85,59,29.66,29.47,5,1,12,0.00
2013-6-30,83.6,75.4,64.8,71.4,67.2,64.5,99,77,56,29.90,29.66,3,0,10,0.00
2013-7-1,71.3,67.9,63.4,69.6,67.1,63.4,100,97,91,30.03,29.90,6,1,10,0.35
2013-7-2,81.6,68.2,61.6,74.8,67.0,61.6,100,96,78,30.12,30.02,3,0,9,0.74
2013-7-3,84.5,75.6,67.1,74.9,71.5,67.1,100,88,67,30.17,30.09,3,1,9,0.00
2013-7-4,87.6,78.8,71.5,76.6,72.3,69.5,95,81,61,30.18,30.05,2,0,9,0.00
2013-7-5,88.2,78.4,72.3,75.3,72.8,70.7,97,84,62,30.14,30.05,2,0,9,0.00
2013-7-7,87.2,83.7,77.4,76.3,73.9,71.2,85,73,63,29.93,29.88,3,0,8,0.03
2013-7-8,81.4,74.5,70.6,73.2,71.1,69.5,100,90,68,30.03,29.94,2,0,5,0.07
2013-7-9,85.7,74.8,68.8,73.6,69.5,67.0,100,85,58,30.06,29.96,3,0,8,0.00
2013-7-10,83.2,73.4,67.6,75.1,71.0,66.5,99,92,73,29.98,29.74,5,1,9,0.22
2013-7-11,80.9,72.7,63.1,71.7,66.1,57.3,97,81,47,29.98,29.73,7,0,15,0.00
2013-7-12,70.6,60.6,57.3,63.4,58.6,57.0,100,94,78,30.11,29.99,3,0,15,0.00
2013-7-17,89.7,82.5,66.6,75.9,72.0,66.6,100,72,55,30.18,29.97,3,1,14,0.00
2013-7-18,89.9,80.4,70.9,77.5,73.1,70.5,99,80,60,30.02,29.90,4,0,14,0.00
2013-7-19,77.4,75.6,74.4,70.8,70.4,69.9,87,84,79,29.91,29.86,1,0,7,0.00
2013-7-24,73.2,65.5,51.9,68.2,58.3,47.2,98,78,62,30.02,29.61,7,2,11,0.00
2013-7-25,70.3,58.3,45.2,57.9,51.6,44.9,100,80,58,30.12,30.02,6,2,11,0.00
2013-7-26,72.3,61.6,54.1,60.4,57.0,54.1,100,86,59,30.09,30.00,4,1,11,0.00
2013-7-27,81.2,66.8,53.5,66.7,59.8,53.5,100,81,46,30.05,29.94,3,0,11,0.00
2013-7-28,77.4,69.4,61.8,70.4,64.5,59.4,96,85,68,29.98,29.90,2,0,6,0.00
2013-7-29,78.5,72.0,60.2,67.4,60.8,54.1,100,70,48,30.08,29.98,2,0,10,0.00
2013-7-30,76.0,66.0,54.2,62.5,57.8,53.4,100,76,52,30.14,30.06,2,0,7,0.00
2013-7-31,79.2,66.7,55.4,65.6,59.2,55.1,100,79,48,30.14,30.02,0,0,4,0.00
2013-8-1,77.6,64.4,56.2,67.0,61.8,55.6,99,92,64,30.02,29.83,4,1,12,0.27
2013-8-2,64.0,63.7,63.2,64.0,63.5,63.2,100,99,99,29.83,29.79,0,0,12,0.00
2013-8-6,75.6,65.3,46.2,58.8,54.2,45.9,99,70,46,30.12,30.08,1,0,3,0.00
2013-8-7,77.9,68.5,57.3,63.9,59.7,54.2,94,75,53,30.14,30.02,4,1,10,0.00
2013-8-8,83.4,74.0,68.9,72.5,67.4,62.2,91,80,62,30.01,29.94,4,1,10,0.00
2013-8-9,77.2,72.6,70.3,73.4,71.0,68.7,100,95,84,29.94,29.75,2,0,7,0.14
2013-8-10,77.0,67.9,54.5,69.9,57.3,43.2,98,72,30,30.04,29.81,5,1,16,0.00
2013-8-11,76.8,63.8,51.3,58.8,53.8,49.7,97,73,44,30.10,29.99,3,0,11,0.00
2013-8-12,77.9,66.5,53.8,62.0,57.1,52.4,98,74,48,30.03,29.90,2,0,11,0.00
2013-8-13,68.9,63.7,59.8,66.2,62.7,58.3,100,96,89,29.90,29.68,1,0,6,0.46
2013-8-14,69.9,59.7,53.3,62.3,53.8,49.4,99,82,54,29.99,29.72,5,1,11,0.00
2013-8-15,72.8,60.4,47.3,57.8,51.6,47.0,100,75,48,30.11,29.99,3,1,10,0.00
2013-8-16,77.0,63.7,52.5,60.2,54.3,50.1,99,74,47,30.20,30.10,2,0,11,0.00
2013-8-17,79.2,64.2,51.0,62.1,56.4,51.0,100,79,44,30.29,30.20,2,0,5,0.00
2013-8-18,76.1,64.3,55.0,64.1,59.0,54.7,100,84,56,30.27,30.09,0,0,4,0.00
2013-8-19,80.5,68.3,57.2,65.0,60.6,55.9,100,79,51,30.10,29.97,2,0,6,0.00
2013-8-20,83.4,73.1,57.2,65.2,61.7,56.9,100,70,48,30.11,30.05,2,0,8,0.00
2013-8-21,85.7,71.7,59.0,67.0,62.6,59.0,100,76,46,30.16,30.01,2,0,9,0.00
2013-8-22,86.5,73.3,62.3,67.7,64.3,59.9,100,76,46,30.02,29.81,4,1,12,0.15
2013-8-23,72.0,63.6,53.6,65.2,55.3,44.9,100,77,41,30.17,29.87,8,2,13,0.01
2013-8-24,77.2,60.8,46.7,56.8,49.7,45.2,100,72,34,30.34,30.17,1,0,13,0.00
2013-8-25,79.8,64.4,48.3,60.0,54.2,47.9,100,73,39,30.38,30.14,2,0,6,0.00
2013-8-26,79.2,68.5,61.3,68.1,63.7,56.6,100,85,65,30.16,29.89,3,1,10,0.27
2013-8-27,81.1,71.0,66.0,70.6,67.7,65.9,100,90,62,29.91,29.85,3,0,9,0.01
2013-8-28,86.1,72.1,61.5,71.5,65.8,61.5,100,83,51,29.93,29.82,4,1,9,0.00
2013-8-29,80.9,70.3,61.5,66.7,63.0,59.9,98,78,56,30.03,29.92,4,1,9,0.00
2013-8-30,84.5,72.5,65.0,67.9,65.4,62.6,97,80,54,29.99,29.78,4,1,10,0.00
2013-8-31,78.5,71.2,65.8,74.4,69.3,65.0,100,94,81,29.81,29.72,2,0,10,0.27
2013-9-1,80.3,72.1,67.6,71.7,68.0,-99.9,100,89,72,29.86,29.78,2,-7,8,0.00
2013-9-2,81.1,72.1,66.3,72.7,68.9,64.5,100,90,67,29.80,29.66,8,0,17,0.99
2013-9-3,73.3,66.4,59.9,65.0,60.3,55.6,100,82,62,29.83,29.74,3,1,8,0.00
2013-9-4,76.8,66.2,56.7,60.7,56.9,50.7,99,74,47,29.92,29.84,3,1,12,0.00
2013-9-5,64.8,57.9,54.1,58.9,54.9,48.6,100,90,68,30.00,29.86,6,1,13,0.11
2013-9-9,60.5,59.0,57.0,52.9,50.6,48.7,78,74,70,30.11,30.08,2,1,13,0.00
2013-9-10,76.5,65.9,57.0,70.9,63.5,53.1,100,92,76,30.10,29.98,4,0,12,0.28
2013-9-11,89.5,79.4,67.9,77.9,72.7,66.0,100,81,65,30.06,29.90,5,2,14,0.39
2013-9-12,69.3,67.7,66.8,68.4,67.1,65.9,100,98,91,29.94,29.63,1,0,11,0.55
2013-9-13,66.6,59.4,52.8,66.6,58.4,51.1,100,97,90,29.85,29.61,7,2,15,0.30
2013-9-14,62.7,54.4,48.9,53.1,50.8,47.8,99,88,62,30.09,29.85,2,0,12,0.01
2013-9-15,65.8,54.0,41.6,54.3,49.4,41.3,100,86,60,30.18,30.04,3,0,8,0.01
2013-9-16,57.5,50.6,38.9,56.4,46.9,36.2,100,87,65,30.32,30.03,10,2,19,0.11
2013-9-17,60.9,46.5,33.7,46.8,40.2,33.4,100,82,51,30.49,30.32,4,1,17,0.00
2013-9-18,69.4,52.8,39.6,51.1,45.2,39.6,100,79,40,30.36,30.15,1,0,4,0.00
2013-9-19,62.0,50.1,44.1,54.6,48.2,44.1,100,94,71,30.17,30.07,0,0,4,0.01
2013-9-20,79.2,62.3,46.8,61.7,54.1,46.8,100,78,41,30.10,29.93,2,0,6,0.00
2013-9-21,75.1,65.1,56.2,62.3,56.7,48.5,98,76,43,29.96,29.59,9,3,21,0.20
2013-9-22,63.1,56.1,47.4,62.5,49.7,42.1,100,80,55,29.90,29.56,6,2,14,0.52
2013-9-23,47.4,43.3,39.3,44.0,41.3,38.8,99,93,87,29.97,29.90,0,0,13,0.00
2013-10-10,62.1,51.6,39.5,49.6,43.8,37.9,98,77,44,30.32,30.18,2,0,5,0.00
2013-10-11,68.1,54.3,46.0,51.8,46.4,43.1,92,76,49,30.17,30.11,3,0,7,0.00
2013-10-12,71.5,54.6,43.1,53.5,47.8,41.7,100,80,49,30.36,30.17,8,2,15,0.00
2013-10-13,70.1,57.0,47.3,51.5,47.7,44.6,97,73,41,30.41,30.30,3,0,13,0.00
2013-10-14,63.5,55.0,45.8,54.8,50.0,44.7,99,84,65,30.34,30.23,2,0,5,0.00
2013-10-15,63.5,58.6,53.9,56.8,54.5,51.3,99,87,75,30.26,30.10,3,0,9,0.00
2013-10-16,67.3,58.0,49.2,54.9,51.3,48.4,99,80,55,30.10,29.83,5,0,9,0.00
2013-10-17,69.4,60.1,53.8,55.8,50.5,44.5,94,73,43,29.86,29.62,4,1,11,0.15
2013-10-18,59.3,53.9,46.8,53.7,45.9,35.6,100,76,46,29.93,29.56,4,1,12,0.29
2013-10-19,63.5,52.3,40.5,48.1,41.3,37.7,96,68,45,29.93,29.67,6,1,14,0.05
2013-10-20,53.9,48.6,41.1,48.6,39.5,34.9,90,72,51,30.01,29.66,7,2,18,0.00
2013-10-21,63.7,53.1,41.3,41.1,38.2,36.1,88,59,38,30.09,29.90,8,2,13,0.00
2013-10-22,56.2,49.8,39.6,49.1,40.7,32.1,94,72,49,29.89,29.73,8,2,15,0.12
2013-10-23,51.4,42.2,34.1,38.1,33.4,30.6,89,72,49,29.80,29.62,3,0,7,0.00
2013-10-24,44.6,39.1,32.9,34.9,32.0,29.8,92,76,57,29.91,29.70,6,1,14,0.00
2013-10-25,45.1,39.4,35.3,34.4,29.7,24.8,92,69,47,30.15,29.91,8,1,16,0.00
2013-10-26,48.2,42.7,37.2,35.3,30.8,24.3,88,64,40,30.14,29.83,9,3,15,0.00
2013-10-27,48.5,43.5,37.9,38.9,32.1,27.6,78,65,46,30.06,29.78,7,2,12,0.00
2013-10-28,52.9,41.0,29.3,36.0,29.2,18.6,83,64,40,30.37,30.05,11,3,15,0.00
2013-10-29,43.8,31.9,22.1,24.9,19.4,13.9,90,63,33,30.48,30.37,4,0,14,0.00
2013-10-30,47.0,38.2,30.9,36.2,30.6,20.3,95,74,55,30.35,30.21,3,0,6,0.00
2013-10-31,59.9,46.7,32.8,58.4,45.9,32.6,100,97,91,30.25,29.66,8,2,15,0.39
2013-11-1,61.6,60.0,58.6,60.1,57.7,56.6,95,92,89,29.64,29.41,11,9,20,0.43
2013-11-7,53.3,45.5,32.7,52.8,39.6,21.9,99,80,54,29.89,29.75,8,3,19,0.40
2013-11-8,43.2,35.3,27.9,34.2,24.6,20.1,91,66,45,30.14,29.86,11,3,19,0.00
2013-11-9,41.5,35.5,27.8,32.2,24.7,19.5,77,65,52,30.23,29.94,7,1,9,0.00
2013-11-10,48.9,41.8,38.0,39.3,34.4,28.0,85,75,62,29.94,29.74,6,2,12,0.03
2013-11-11,44.8,39.7,34.0,34.6,27.9,24.6,78,63,50,30.12,29.89,9,3,13,0.00
2013-11-12,40.6,28.8,23.5,35.7,18.3,13.3,89,65,50,30.27,29.90,9,3,15,0.01
2013-11-13,32.5,24.1,16.4,15.2,11.4,6.2,78,60,33,30.36,30.25,7,1,12,0.00
2013-11-14,45.8,39.2,31.0,23.9,18.3,11.4,52,43,28,30.13,30.07,7,4,14,0.00
2013-11-15,54.7,44.8,35.8,21.9,14.8,10.0,44,30,20,30.19,30.10,6,1,11,0.00
2013-11-16,58.1,47.3,39.9,30.0,25.6,17.4,67,44,30,30.30,30.17,4,0,6,0.00
2013-11-17,60.2,53.3,40.5,53.6,45.5,30.2,85,75,60,30.25,29.68,8,3,20,0.02
2013-11-18,62.9,53.0,40.2,57.4,41.9,27.4,91,67,48,29.70,29.41,12,4,19,0.38
2013-11-19,40.1,32.8,24.7,29.1,19.9,14.3,79,59,48,30.39,29.71,11,5,19,0.00
2013-11-20,34.3,25.8,19.1,18.0,15.9,13.4,84,67,45,30.65,30.39,6,1,11,0.00
2013-11-21,44.5,30.7,17.2,31.3,19.3,11.8,87,65,29,30.65,30.37,4,0,8,0.00
2013-11-22,44.6,40.5,35.3,43.4,38.8,29.7,100,94,69,30.37,29.85,3,1,9,0.19
2013-11-23,44.1,32.2,21.1,41.6,21.8,9.5,92,66,43,30.01,29.81,11,3,14,0.00
2013-11-24,21.4,17.0,11.7,18.0,1.7,-4.6,90,51,37,30.31,29.88,15,6,21,0.00
2013-11-25,29.5,19.6,6.1,13.9,5.5,-5.5,73,54,38,30.44,30.22,5,2,21,0.00
2013-11-26,34.3,30.7,26.0,31.9,25.6,11.2,99,82,44,30.29,29.96,8,2,11,0.05
2013-11-27,47.4,36.8,30.3,44.0,35.6,27.4,100,95,84,29.96,29.39,19,2,23,1.26
2013-11-28,30.3,22.4,16.2,27.2,11.2,3.0,88,63,43,30.45,29.57,7,2,14,0.01
2013-11-29,24.2,17.4,10.5,13.0,8.9,4.8,89,70,45,30.77,30.45,3,0,7,0.00
2013-11-30,30.7,18.9,5.8,22.3,9.7,2.0,87,69,46,30.81,30.39,6,1,9,0.01
2013-12-1,40.3,32.6,26.3,30.5,27.1,21.8,92,80,64,30.37,30.03,6,1,14,0.00
2013-12-2,37.9,33.5,29.7,32.2,30.5,27.7,95,89,77,30.03,29.91,0,0,2,0.00
2013-12-3,42.3,34.4,29.0,35.7,31.9,27.9,99,91,75,30.01,29.91,3,0,5,0.01
2013-12-4,37.3,30.5,25.0,31.0,26.3,23.8,97,85,64,30.17,30.01,5,0,9,0.00
2013-12-6,40.3,37.6,30.6,39.9,32.2,24.2,99,81,63,30.16,29.95,4,1,7,0.59
2013-12-7,32.8,29.7,23.6,28.4,20.1,11.6,93,69,49,30.48,30.13,7,2,14,0.00
2013-12-8,27.6,24.6,19.2,16.4,12.4,10.1,77,60,50,30.60,30.46,4,0,14,0.00
2013-12-9,35.9,29.0,24.1,32.8,24.4,12.6,95,84,55,30.44,29.90,12,3,26,0.01
2013-12-10,33.4,28.6,19.4,29.5,18.4,6.4,89,66,46,29.98,29.81,5,2,14,0.00
2013-12-11,29.5,22.7,18.6,15.9,11.3,5.2,85,62,35,30.18,29.99,7,3,17,0.00
2013-12-12,20.3,15.8,8.8,7.9,2.4,-5.2,71,56,34,30.32,30.03,7,2,17,0.00
2013-12-13,23.0,13.8,15.2,15.6,-17.0,-99.9,85,51,50,30.45,29.96,8,-233,17,0.00
2013-12-14,17.8,5.5,9.5,15.1,-52.8,-99.9,89,33,58,30.59,30.09,7,-550,16,0.00
2013-12-15,24.7,22.6,17.2,21.9,19.6,14.3,94,88,80,30.07,29.56,8,2,20,0.00
2013-12-16,21.6,15.7,2.6,17.2,5.4,-4.4,86,64,44,30.24,29.74,5,1,12,0.00
2013-12-17,14.6,7.0,-6.5,11.4,2.7,-11.6,87,82,72,30.26,30.04,1,0,3,0.00
2013-12-18,27.5,20.6,11.6,20.1,15.6,8.7,90,81,70,30.07,29.98,5,1,8,0.01
2013-12-19,37.6,32.5,26.0,28.4,22.3,18.0,89,66,51,30.10,29.96,5,3,11,0.02
2013-12-20,43.2,38.3,33.5,39.9,33.1,28.1,95,82,66,30.09,29.89,3,0,5,0.26
2013-12-21,50.5,41.4,31.0,47.9,40.1,31.0,100,95,83,29.91,29.83,6,1,9,0.53
2013-12-22,58.9,31.2,25.8,54.7,30.6,25.1,100,98,75,29.95,29.68,7,0,13,0.01
2013-12-23,41.6,36.3,30.7,41.6,36.0,25.8,100,99,81,30.17,29.94,5,0,6,0.17
2013-12-24,30.7,22.1,12.6,26.6,15.4,7.9,90,76,60,30.32,30.12,5,2,6,0.00
2013-12-25,15.1,10.5,3.0,8.6,1.6,-3.8,81,67,55,30.58,30.32,8,1,12,0.00
2013-12-26,26.3,23.0,14.8,22.9,17.0,8.0,89,78,58,30.42,30.19,6,2,10,0.00
2013-12-27,29.4,26.5,22.7,23.3,19.5,15.7,86,75,60,30.28,30.20,4,2,10,0.00
2013-12-28,38.5,33.9,26.1,30.4,26.2,19.9,91,73,61,30.20,30.03,6,2,10,0.02
2013-12-29,40.6,33.5,29.8,33.8,30.3,27.4,100,89,67,30.03,29.60,3,0,8,0.26
2013-12-30,35.0,24.6,7.0,33.8,17.1,1.3,100,74,49,30.21,29.62,7,2,17,0.12
2013-12-31,18.1,12.0,4.5,13.8,5.4,-0.3,84,75,60,30.20,30.03,6,1,11,0.00
2014-1-1,19.2,13.3,4.3,9.3,4.8,-3.0,78,68,56,30.43,30.20,6,1,8,0.00
2014-1-2,3.9,-2.9,-8.4,-3.6,-8.8,-14.5,77,75,70,30.42,30.00,10,6,17,0.00